sensor_id;sensor_type;location;lat;lon;timestamp;temperature;humidity
9699;DHT22;10089;47.876;8.346;2023-08-30T00:00:31;10.00;99.90
9699;DHT22;10089;47.876;8.346;2023-08-30T00:02:56;10.00;99.90
9699;DHT22;10089;47.876;8.346;2023-08-30T00:05:22;10.00;99.90
9699;DHT22;10089;47.876;8.346;2023-08-30T00:07:48;10.00;99.90
9699;DHT22;10089;47.876;8.346;2023-08-30T00:10:14;10.10;99.90
9699;DHT22;10089;47.876;8.346;2023-08-30T00:12:40;10.00;99.90
9699;DHT22;10089;47.876;8.346;2023-08-30T00:15:06;10.00;99.90
9699;DHT22;10089;47.876;8.346;2023-08-30T00:17:31;10.00;99.90
9699;DHT22;10089;47.876;8.346;2023-08-30T00:19:58;10.00;99.90
9699;DHT22;10089;47.876;8.346;2023-08-30T00:22:23;10.00;99.90
9699;DHT22;10089;47.876;8.346;2023-08-30T00:24:49;9.90;99.90
9699;DHT22;10089;47.876;8.346;2023-08-30T00:27:14;9.90;99.90
9699;DHT22;10089;47.876;8.346;2023-08-30T00:29:40;9.90;99.90
9699;DHT22;10089;47.876;8.346;2023-08-30T00:32:06;9.80;99.90
9699;DHT22;10089;47.876;8.346;2023-08-30T00:34:31;9.80;99.90
9699;DHT22;10089;47.876;8.346;2023-08-30T00:36:57;9.70;99.90
9699;DHT22;10089;47.876;8.346;2023-08-30T00:39:22;9.80;99.90
9699;DHT22;10089;47.876;8.346;2023-08-30T00:41:48;9.90;99.90
9699;DHT22;10089;47.876;8.346;2023-08-30T00:44:14;9.80;99.90
9699;DHT22;10089;47.876;8.346;2023-08-30T00:46:39;9.80;99.90
9699;DHT22;10089;47.876;8.346;2023-08-30T00:49:05;9.90;99.90
9699;DHT22;10089;47.876;8.346;2023-08-30T00:51:32;9.80;99.90
9699;DHT22;10089;47.876;8.346;2023-08-30T00:53:59;9.40;99.90
9699;DHT22;10089;47.876;8.346;2023-08-30T00:56:27;9.00;99.90
9699;DHT22;10089;47.876;8.346;2023-08-30T00:58:53;9.20;99.90
9699;DHT22;10089;47.876;8.346;2023-08-30T01:01:19;9.30;99.90
9699;DHT22;10089;47.876;8.346;2023-08-30T01:03:45;9.40;99.90
9699;DHT22;10089;47.876;8.346;2023-08-30T01:06:11;9.30;99.90
9699;DHT22;10089;47.876;8.346;2023-08-30T01:08:37;9.30;99.90
9699;DHT22;10089;47.876;8.346;2023-08-30T01:13:53;9.40;99.90
9699;DHT22;10089;47.876;8.346;2023-08-30T01:16:19;9.50;99.90
9699;DHT22;10089;47.876;8.346;2023-08-30T01:18:47;9.50;99.90
9699;DHT22;10089;47.876;8.346;2023-08-30T01:21:41;9.40;99.90
9699;DHT22;10089;47.876;8.346;2023-08-30T01:24:14;9.40;99.90
9699;DHT22;10089;47.876;8.346;2023-08-30T01:27:10;9.40;99.90
9699;DHT22;10089;47.876;8.346;2023-08-30T01:29:37;9.50;99.90
9699;DHT22;10089;47.876;8.346;2023-08-30T01:32:05;9.50;99.90
9699;DHT22;10089;47.876;8.346;2023-08-30T01:34:33;9.40;99.90
9699;DHT22;10089;47.876;8.346;2023-08-30T01:37:00;9.40;99.90
9699;DHT22;10089;47.876;8.346;2023-08-30T01:39:26;9.50;99.90
9699;DHT22;10089;47.876;8.346;2023-08-30T01:41:52;9.60;99.90
9699;DHT22;10089;47.876;8.346;2023-08-30T01:44:26;9.40;99.90
9699;DHT22;10089;47.876;8.346;2023-08-30T01:46:52;9.30;99.90
9699;DHT22;10089;47.876;8.346;2023-08-30T01:49:18;9.20;99.90
9699;DHT22;10089;47.876;8.346;2023-08-30T01:51:44;8.90;99.90
9699;DHT22;10089;47.876;8.346;2023-08-30T01:54:13;8.90;99.90
9699;DHT22;10089;47.876;8.346;2023-08-30T01:56:42;8.90;99.90
9699;DHT22;10089;47.876;8.346;2023-08-30T01:59:07;8.80;99.90
9699;DHT22;10089;47.876;8.346;2023-08-30T02:01:33;8.90;99.90
9699;DHT22;10089;47.876;8.346;2023-08-30T02:03:59;8.80;99.90
9699;DHT22;10089;47.876;8.346;2023-08-30T02:09:24;8.80;99.90
9699;DHT22;10089;47.876;8.346;2023-08-30T02:11:52;8.80;99.90
9699;DHT22;10089;47.876;8.346;2023-08-30T02:14:20;9.00;99.90
9699;DHT22;10089;47.876;8.346;2023-08-30T02:16:47;9.00;99.90
9699;DHT22;10089;47.876;8.346;2023-08-30T02:19:14;9.00;99.90
9699;DHT22;10089;47.876;8.346;2023-08-30T02:21:42;9.00;99.90
9699;DHT22;10089;47.876;8.346;2023-08-30T02:24:09;9.00;99.90
9699;DHT22;10089;47.876;8.346;2023-08-30T02:26:34;8.90;99.90
9699;DHT22;10089;47.876;8.346;2023-08-30T02:29:00;8.90;99.90
9699;DHT22;10089;47.876;8.346;2023-08-30T02:31:26;8.90;99.90
9699;DHT22;10089;47.876;8.346;2023-08-30T02:33:51;8.90;99.90
9699;DHT22;10089;47.876;8.346;2023-08-30T02:36:17;8.80;99.90
9699;DHT22;10089;47.876;8.346;2023-08-30T02:38:42;8.80;99.90
9699;DHT22;10089;47.876;8.346;2023-08-30T02:41:08;8.90;99.90
9699;DHT22;10089;47.876;8.346;2023-08-30T02:43:35;8.90;99.90
9699;DHT22;10089;47.876;8.346;2023-08-30T02:46:01;8.80;99.90
9699;DHT22;10089;47.876;8.346;2023-08-30T02:48:29;8.70;99.90
9699;DHT22;10089;47.876;8.346;2023-08-30T02:50:54;8.50;99.90
9699;DHT22;10089;47.876;8.346;2023-08-30T02:53:20;8.60;99.90
9699;DHT22;10089;47.876;8.346;2023-08-30T02:55:47;8.60;99.90
9699;DHT22;10089;47.876;8.346;2023-08-30T02:58:13;8.80;99.90
9699;DHT22;10089;47.876;8.346;2023-08-30T03:00:38;8.80;99.90
9699;DHT22;10089;47.876;8.346;2023-08-30T03:03:04;8.80;99.90
9699;DHT22;10089;47.876;8.346;2023-08-30T03:05:30;8.90;99.90
9699;DHT22;10089;47.876;8.346;2023-08-30T03:07:55;8.80;99.90
9699;DHT22;10089;47.876;8.346;2023-08-30T03:10:21;8.70;99.90
9699;DHT22;10089;47.876;8.346;2023-08-30T03:12:47;8.30;99.90
9699;DHT22;10089;47.876;8.346;2023-08-30T03:15:13;8.10;99.90
9699;DHT22;10089;47.876;8.346;2023-08-30T03:17:38;8.30;99.90
9699;DHT22;10089;47.876;8.346;2023-08-30T03:20:04;8.40;99.90
9699;DHT22;10089;47.876;8.346;2023-08-30T03:22:33;8.50;99.90
9699;DHT22;10089;47.876;8.346;2023-08-30T03:24:59;8.50;99.90
9699;DHT22;10089;47.876;8.346;2023-08-30T03:27:27;8.50;99.90
9699;DHT22;10089;47.876;8.346;2023-08-30T03:29:55;8.40;99.90
9699;DHT22;10089;47.876;8.346;2023-08-30T03:32:21;8.40;99.90
9699;DHT22;10089;47.876;8.346;2023-08-30T03:34:47;8.10;99.90
9699;DHT22;10089;47.876;8.346;2023-08-30T03:37:14;7.80;99.90
9699;DHT22;10089;47.876;8.346;2023-08-30T03:39:40;8.00;99.90
9699;DHT22;10089;47.876;8.346;2023-08-30T03:42:06;8.00;99.90
9699;DHT22;10089;47.876;8.346;2023-08-30T03:44:31;7.80;99.90
9699;DHT22;10089;47.876;8.346;2023-08-30T03:46:57;7.90;99.90
9699;DHT22;10089;47.876;8.346;2023-08-30T03:49:23;8.00;99.90
9699;DHT22;10089;47.876;8.346;2023-08-30T03:51:48;7.90;99.90
9699;DHT22;10089;47.876;8.346;2023-08-30T03:54:14;8.10;99.90
9699;DHT22;10089;47.876;8.346;2023-08-30T03:56:45;8.20;99.90
9699;DHT22;10089;47.876;8.346;2023-08-30T03:59:14;7.80;99.90
9699;DHT22;10089;47.876;8.346;2023-08-30T04:01:39;7.60;99.90
9699;DHT22;10089;47.876;8.346;2023-08-30T04:04:05;7.80;99.90
9699;DHT22;10089;47.876;8.346;2023-08-30T04:06:31;8.00;99.90
9699;DHT22;10089;47.876;8.346;2023-08-30T04:08:56;7.90;99.90
9699;DHT22;10089;47.876;8.346;2023-08-30T04:11:23;8.00;99.90
9699;DHT22;10089;47.876;8.346;2023-08-30T04:13:48;8.20;99.90
9699;DHT22;10089;47.876;8.346;2023-08-30T04:16:14;8.20;99.90
9699;DHT22;10089;47.876;8.346;2023-08-30T04:18:39;8.00;99.90
9699;DHT22;10089;47.876;8.346;2023-08-30T04:21:05;8.00;99.90
9699;DHT22;10089;47.876;8.346;2023-08-30T04:23:33;8.10;99.90
9699;DHT22;10089;47.876;8.346;2023-08-30T04:25:58;8.10;99.90
9699;DHT22;10089;47.876;8.346;2023-08-30T04:28:24;8.10;99.90
9699;DHT22;10089;47.876;8.346;2023-08-30T04:30:49;8.10;99.90
9699;DHT22;10089;47.876;8.346;2023-08-30T04:33:19;8.10;99.90
9699;DHT22;10089;47.876;8.346;2023-08-30T04:35:50;8.10;99.90
9699;DHT22;10089;47.876;8.346;2023-08-30T04:38:16;8.20;99.90
9699;DHT22;10089;47.876;8.346;2023-08-30T04:40:41;8.10;99.90
9699;DHT22;10089;47.876;8.346;2023-08-30T04:43:07;8.20;99.90
9699;DHT22;10089;47.876;8.346;2023-08-30T04:45:34;8.20;99.90
9699;DHT22;10089;47.876;8.346;2023-08-30T04:48:00;8.20;99.90
9699;DHT22;10089;47.876;8.346;2023-08-30T04:50:26;8.20;99.90
9699;DHT22;10089;47.876;8.346;2023-08-30T04:52:51;8.10;99.90
9699;DHT22;10089;47.876;8.346;2023-08-30T04:55:17;8.20;99.90
9699;DHT22;10089;47.876;8.346;2023-08-30T04:57:43;8.10;99.90
9699;DHT22;10089;47.876;8.346;2023-08-30T05:00:11;8.20;99.90
9699;DHT22;10089;47.876;8.346;2023-08-30T05:02:37;8.20;99.90
9699;DHT22;10089;47.876;8.346;2023-08-30T05:05:03;8.20;99.90
9699;DHT22;10089;47.876;8.346;2023-08-30T05:07:29;8.20;99.90
9699;DHT22;10089;47.876;8.346;2023-08-30T05:09:54;8.10;99.90
9699;DHT22;10089;47.876;8.346;2023-08-30T05:12:20;8.10;99.90
9699;DHT22;10089;47.876;8.346;2023-08-30T05:14:46;8.20;99.90
9699;DHT22;10089;47.876;8.346;2023-08-30T05:17:11;8.20;99.90
9699;DHT22;10089;47.876;8.346;2023-08-30T05:19:37;8.10;99.90
9699;DHT22;10089;47.876;8.346;2023-08-30T05:22:03;8.10;99.90
9699;DHT22;10089;47.876;8.346;2023-08-30T05:24:29;8.10;99.90
9699;DHT22;10089;47.876;8.346;2023-08-30T05:26:54;8.00;99.90
9699;DHT22;10089;47.876;8.346;2023-08-30T05:29:20;8.00;99.90
9699;DHT22;10089;47.876;8.346;2023-08-30T05:31:45;8.10;99.90
9699;DHT22;10089;47.876;8.346;2023-08-30T05:34:11;8.20;99.90
9699;DHT22;10089;47.876;8.346;2023-08-30T05:36:37;8.20;99.90
9699;DHT22;10089;47.876;8.346;2023-08-30T05:39:02;8.20;99.90
9699;DHT22;10089;47.876;8.346;2023-08-30T05:41:30;8.40;99.90
9699;DHT22;10089;47.876;8.346;2023-08-30T05:43:58;8.40;99.90
9699;DHT22;10089;47.876;8.346;2023-08-30T05:46:23;8.50;99.90
9699;DHT22;10089;47.876;8.346;2023-08-30T05:48:49;8.60;99.90
9699;DHT22;10089;47.876;8.346;2023-08-30T05:51:15;8.80;99.90
9699;DHT22;10089;47.876;8.346;2023-08-30T05:53:40;9.00;99.90
9699;DHT22;10089;47.876;8.346;2023-08-30T05:56:06;9.30;99.90
9699;DHT22;10089;47.876;8.346;2023-08-30T05:58:32;9.40;99.90
9699;DHT22;10089;47.876;8.346;2023-08-30T06:00:58;9.60;99.90
9699;DHT22;10089;47.876;8.346;2023-08-30T06:03:26;9.70;99.90
9699;DHT22;10089;47.876;8.346;2023-08-30T06:05:52;9.70;99.90
9699;DHT22;10089;47.876;8.346;2023-08-30T06:08:18;9.60;99.90
9699;DHT22;10089;47.876;8.346;2023-08-30T06:10:44;9.40;99.90
9699;DHT22;10089;47.876;8.346;2023-08-30T06:13:09;9.20;99.90
9699;DHT22;10089;47.876;8.346;2023-08-30T06:15:35;9.20;99.90
9699;DHT22;10089;47.876;8.346;2023-08-30T06:18:04;9.20;99.90
9699;DHT22;10089;47.876;8.346;2023-08-30T06:20:30;9.20;99.90
9699;DHT22;10089;47.876;8.346;2023-08-30T06:22:57;9.00;99.90
9699;DHT22;10089;47.876;8.346;2023-08-30T06:25:23;9.00;99.90
9699;DHT22;10089;47.876;8.346;2023-08-30T06:27:57;9.20;99.90
9699;DHT22;10089;47.876;8.346;2023-08-30T06:30:28;9.50;99.90
9699;DHT22;10089;47.876;8.346;2023-08-30T06:32:55;9.60;99.90
9699;DHT22;10089;47.876;8.346;2023-08-30T06:35:21;10.10;99.90
9699;DHT22;10089;47.876;8.346;2023-08-30T06:37:47;10.60;99.90
9699;DHT22;10089;47.876;8.346;2023-08-30T06:40:12;11.10;99.90
9699;DHT22;10089;47.876;8.346;2023-08-30T06:42:38;11.60;99.90
9699;DHT22;10089;47.876;8.346;2023-08-30T06:45:04;11.90;99.90
9699;DHT22;10089;47.876;8.346;2023-08-30T06:47:30;12.20;99.90
9699;DHT22;10089;47.876;8.346;2023-08-30T06:49:56;12.40;99.90
9699;DHT22;10089;47.876;8.346;2023-08-30T06:52:22;12.60;99.90
9699;DHT22;10089;47.876;8.346;2023-08-30T06:54:48;12.80;99.90
9699;DHT22;10089;47.876;8.346;2023-08-30T06:57:13;13.00;99.90
9699;DHT22;10089;47.876;8.346;2023-08-30T06:59:40;13.10;99.90
9699;DHT22;10089;47.876;8.346;2023-08-30T07:02:06;13.00;99.90
9699;DHT22;10089;47.876;8.346;2023-08-30T07:04:31;13.10;99.90
9699;DHT22;10089;47.876;8.346;2023-08-30T07:06:57;12.20;99.90
9699;DHT22;10089;47.876;8.346;2023-08-30T07:09:23;11.80;99.90
9699;DHT22;10089;47.876;8.346;2023-08-30T07:11:58;11.60;99.90
9699;DHT22;10089;47.876;8.346;2023-08-30T07:14:23;11.30;99.90
9699;DHT22;10089;47.876;8.346;2023-08-30T07:16:50;11.60;99.90
9699;DHT22;10089;47.876;8.346;2023-08-30T07:19:16;11.70;99.90
9699;DHT22;10089;47.876;8.346;2023-08-30T07:21:42;12.00;99.90
9699;DHT22;10089;47.876;8.346;2023-08-30T07:24:08;12.30;99.90
9699;DHT22;10089;47.876;8.346;2023-08-30T07:26:34;11.90;99.90
9699;DHT22;10089;47.876;8.346;2023-08-30T07:28:59;11.50;99.90
9699;DHT22;10089;47.876;8.346;2023-08-30T07:31:25;11.40;99.90
9699;DHT22;10089;47.876;8.346;2023-08-30T07:33:50;11.10;99.90
9699;DHT22;10089;47.876;8.346;2023-08-30T07:36:16;11.00;99.90
9699;DHT22;10089;47.876;8.346;2023-08-30T07:38:41;11.00;99.90
9699;DHT22;10089;47.876;8.346;2023-08-30T07:41:09;11.60;99.90
9699;DHT22;10089;47.876;8.346;2023-08-30T07:43:35;11.90;99.90
9699;DHT22;10089;47.876;8.346;2023-08-30T07:46:00;12.10;99.90
9699;DHT22;10089;47.876;8.346;2023-08-30T07:48:26;12.80;99.90
9699;DHT22;10089;47.876;8.346;2023-08-30T07:50:52;13.10;99.90
9699;DHT22;10089;47.876;8.346;2023-08-30T07:53:17;13.60;99.90
9699;DHT22;10089;47.876;8.346;2023-08-30T07:55:47;13.50;99.90
9699;DHT22;10089;47.876;8.346;2023-08-30T07:58:13;13.80;23.10
9699;DHT22;10089;47.876;8.346;2023-08-30T08:00:38;13.90;26.30
9699;DHT22;10089;47.876;8.346;2023-08-30T08:03:04;14.10;99.90
9699;DHT22;10089;47.876;8.346;2023-08-30T08:05:29;14.30;1.00
9699;DHT22;10089;47.876;8.346;2023-08-30T08:07:59;14.20;1.00
9699;DHT22;10089;47.876;8.346;2023-08-30T08:10:26;14.30;1.00
9699;DHT22;10089;47.876;8.346;2023-08-30T08:12:51;14.70;1.00
9699;DHT22;10089;47.876;8.346;2023-08-30T08:15:17;14.30;1.00
9699;DHT22;10089;47.876;8.346;2023-08-30T08:17:42;14.80;1.00
9699;DHT22;10089;47.876;8.346;2023-08-30T08:20:08;14.60;19.80
9699;DHT22;10089;47.876;8.346;2023-08-30T08:22:34;15.00;1.00
9699;DHT22;10089;47.876;8.346;2023-08-30T08:24:59;15.40;1.00
9699;DHT22;10089;47.876;8.346;2023-08-30T08:27:25;15.20;1.00
9699;DHT22;10089;47.876;8.346;2023-08-30T08:29:51;14.90;1.00
9699;DHT22;10089;47.876;8.346;2023-08-30T08:32:16;15.10;1.00
9699;DHT22;10089;47.876;8.346;2023-08-30T08:34:42;15.30;1.00
9699;DHT22;10089;47.876;8.346;2023-08-30T08:37:07;15.20;5.10
9699;DHT22;10089;47.876;8.346;2023-08-30T08:39:33;15.30;1.00
9699;DHT22;10089;47.876;8.346;2023-08-30T08:41:59;15.20;1.00
9699;DHT22;10089;47.876;8.346;2023-08-30T08:44:26;15.70;5.40
9699;DHT22;10089;47.876;8.346;2023-08-30T08:46:56;16.10;54.10
9699;DHT22;10089;47.876;8.346;2023-08-30T08:49:23;15.80;78.40
9699;DHT22;10089;47.876;8.346;2023-08-30T08:51:53;15.70;1.00
9699;DHT22;10089;47.876;8.346;2023-08-30T08:54:20;14.70;7.80
9699;DHT22;10089;47.876;8.346;2023-08-30T08:56:45;14.80;93.80
9699;DHT22;10089;47.876;8.346;2023-08-30T08:59:11;15.30;99.90
9699;DHT22;10089;47.876;8.346;2023-08-30T09:01:38;15.80;48.60
9699;DHT22;10089;47.876;8.346;2023-08-30T09:04:10;16.00;22.00
9699;DHT22;10089;47.876;8.346;2023-08-30T09:06:36;16.20;1.00
9699;DHT22;10089;47.876;8.346;2023-08-30T09:09:03;16.40;1.00
9699;DHT22;10089;47.876;8.346;2023-08-30T09:11:33;16.70;1.00
9699;DHT22;10089;47.876;8.346;2023-08-30T09:14:00;16.50;1.00
9699;DHT22;10089;47.876;8.346;2023-08-30T09:16:26;16.70;1.00
9699;DHT22;10089;47.876;8.346;2023-08-30T09:19:02;16.30;1.00
9699;DHT22;10089;47.876;8.346;2023-08-30T09:21:29;15.70;1.00
9699;DHT22;10089;47.876;8.346;2023-08-30T09:26:24;16.00;1.00
9699;DHT22;10089;47.876;8.346;2023-08-30T09:28:50;15.90;46.10
9699;DHT22;10089;47.876;8.346;2023-08-30T09:31:19;15.60;24.20
9699;DHT22;10089;47.876;8.346;2023-08-30T09:33:46;15.00;53.50
9699;DHT22;10089;47.876;8.346;2023-08-30T09:36:13;15.40;99.00
9699;DHT22;10089;47.876;8.346;2023-08-30T09:38:39;15.50;61.50
9699;DHT22;10089;47.876;8.346;2023-08-30T09:41:05;14.80;99.90
9699;DHT22;10089;47.876;8.346;2023-08-30T09:43:32;14.70;99.40
9699;DHT22;10089;47.876;8.346;2023-08-30T09:45:58;15.30;99.90
9699;DHT22;10089;47.876;8.346;2023-08-30T09:48:28;15.20;1.00
9699;DHT22;10089;47.876;8.346;2023-08-30T09:50:54;15.30;83.50
9699;DHT22;10089;47.876;8.346;2023-08-30T09:53:25;15.10;1.00
9699;DHT22;10089;47.876;8.346;2023-08-30T09:55:52;14.90;43.00
9699;DHT22;10089;47.876;8.346;2023-08-30T09:58:20;15.00;1.00
9699;DHT22;10089;47.876;8.346;2023-08-30T10:00:46;15.20;1.00
9699;DHT22;10089;47.876;8.346;2023-08-30T10:03:12;15.50;1.00
9699;DHT22;10089;47.876;8.346;2023-08-30T10:05:39;15.60;1.00
9699;DHT22;10089;47.876;8.346;2023-08-30T10:08:07;15.70;1.00
9699;DHT22;10089;47.876;8.346;2023-08-30T10:10:34;15.70;1.00
9699;DHT22;10089;47.876;8.346;2023-08-30T10:13:02;15.60;1.00
9699;DHT22;10089;47.876;8.346;2023-08-30T10:15:31;14.80;1.00
9699;DHT22;10089;47.876;8.346;2023-08-30T10:17:58;15.10;1.00
9699;DHT22;10089;47.876;8.346;2023-08-30T10:20:27;15.60;1.00
9699;DHT22;10089;47.876;8.346;2023-08-30T10:22:53;15.70;13.00
9699;DHT22;10089;47.876;8.346;2023-08-30T10:25:22;16.20;1.00
9699;DHT22;10089;47.876;8.346;2023-08-30T10:27:50;15.80;1.00
9699;DHT22;10089;47.876;8.346;2023-08-30T10:30:19;15.70;1.00
9699;DHT22;10089;47.876;8.346;2023-08-30T10:32:45;15.80;1.00
9699;DHT22;10089;47.876;8.346;2023-08-30T10:35:12;16.10;1.00
9699;DHT22;10089;47.876;8.346;2023-08-30T10:37:39;16.30;1.00
9699;DHT22;10089;47.876;8.346;2023-08-30T10:40:05;16.10;1.00
9699;DHT22;10089;47.876;8.346;2023-08-30T10:42:31;16.40;1.00
9699;DHT22;10089;47.876;8.346;2023-08-30T10:45:03;16.60;1.00
9699;DHT22;10089;47.876;8.346;2023-08-30T10:47:31;16.50;1.00
9699;DHT22;10089;47.876;8.346;2023-08-30T10:49:58;15.60;1.00
9699;DHT22;10089;47.876;8.346;2023-08-30T10:52:26;15.70;1.00
9699;DHT22;10089;47.876;8.346;2023-08-30T10:54:52;15.70;1.00
9699;DHT22;10089;47.876;8.346;2023-08-30T10:57:26;15.40;7.20
9699;DHT22;10089;47.876;8.346;2023-08-30T11:02:48;15.80;1.00
9699;DHT22;10089;47.876;8.346;2023-08-30T11:05:22;15.60;1.00
9699;DHT22;10089;47.876;8.346;2023-08-30T11:07:48;15.70;1.00
9699;DHT22;10089;47.876;8.346;2023-08-30T11:10:18;15.70;1.00
9699;DHT22;10089;47.876;8.346;2023-08-30T11:12:45;15.80;1.00
9699;DHT22;10089;47.876;8.346;2023-08-30T11:15:12;15.20;1.00
9699;DHT22;10089;47.876;8.346;2023-08-30T11:17:42;15.10;1.00
9699;DHT22;10089;47.876;8.346;2023-08-30T11:20:15;15.40;25.00
9699;DHT22;10089;47.876;8.346;2023-08-30T11:22:46;15.40;5.00
9699;DHT22;10089;47.876;8.346;2023-08-30T11:25:15;15.70;28.50
9699;DHT22;10089;47.876;8.346;2023-08-30T11:27:42;15.50;1.00
9699;DHT22;10089;47.876;8.346;2023-08-30T11:30:09;15.10;1.00
9699;DHT22;10089;47.876;8.346;2023-08-30T11:32:35;15.10;99.90
9699;DHT22;10089;47.876;8.346;2023-08-30T11:35:02;15.10;99.90
9699;DHT22;10089;47.876;8.346;2023-08-30T11:37:29;15.30;99.90
9699;DHT22;10089;47.876;8.346;2023-08-30T11:39:57;15.10;99.90
9699;DHT22;10089;47.876;8.346;2023-08-30T11:42:50;15.00;99.90
9699;DHT22;10089;47.876;8.346;2023-08-30T11:45:15;14.80;99.90
9699;DHT22;10089;47.876;8.346;2023-08-30T11:47:41;14.80;99.90
9699;DHT22;10089;47.876;8.346;2023-08-30T11:50:07;14.80;99.90
9699;DHT22;10089;47.876;8.346;2023-08-30T11:52:34;14.70;99.90
9699;DHT22;10089;47.876;8.346;2023-08-30T11:55:01;14.80;99.90
9699;DHT22;10089;47.876;8.346;2023-08-30T11:57:28;14.70;99.90
9699;DHT22;10089;47.876;8.346;2023-08-30T12:00:06;14.60;99.90
9699;DHT22;10089;47.876;8.346;2023-08-30T12:19:09;14.80;99.90
9699;DHT22;10089;47.876;8.346;2023-08-30T12:25:25;14.90;99.90
9699;DHT22;10089;47.876;8.346;2023-08-30T12:31:57;15.00;99.90
9699;DHT22;10089;47.876;8.346;2023-08-30T12:42:28;15.20;8.30
9699;DHT22;10089;47.876;8.346;2023-08-30T12:53:08;15.40;30.50
9699;DHT22;10089;47.876;8.346;2023-08-30T13:04:09;14.30;99.90
9699;DHT22;10089;47.876;8.346;2023-08-30T13:07:56;13.80;99.90
9699;DHT22;10089;47.876;8.346;2023-08-30T13:10:26;14.10;99.90
9699;DHT22;10089;47.876;8.346;2023-08-30T13:13:00;14.50;99.90
9699;DHT22;10089;47.876;8.346;2023-08-30T13:16:01;14.70;99.90
9699;DHT22;10089;47.876;8.346;2023-08-30T13:18:52;15.40;1.00
9699;DHT22;10089;47.876;8.346;2023-08-30T13:21:17;15.40;12.20
9699;DHT22;10089;47.876;8.346;2023-08-30T13:23:43;15.10;99.90
9699;DHT22;10089;47.876;8.346;2023-08-30T13:26:10;14.90;99.90
9699;DHT22;10089;47.876;8.346;2023-08-30T13:28:36;15.00;72.50
9699;DHT22;10089;47.876;8.346;2023-08-30T13:31:01;14.70;99.90
9699;DHT22;10089;47.876;8.346;2023-08-30T13:33:29;14.70;99.90
9699;DHT22;10089;47.876;8.346;2023-08-30T13:35:54;14.90;99.90
9699;DHT22;10089;47.876;8.346;2023-08-30T13:38:21;14.80;99.90
9699;DHT22;10089;47.876;8.346;2023-08-30T13:40:49;14.90;99.90
9699;DHT22;10089;47.876;8.346;2023-08-30T13:43:15;15.10;99.90
9699;DHT22;10089;47.876;8.346;2023-08-30T13:45:44;15.10;99.90
9699;DHT22;10089;47.876;8.346;2023-08-30T13:48:13;15.10;99.90
9699;DHT22;10089;47.876;8.346;2023-08-30T13:50:44;15.20;99.90
9699;DHT22;10089;47.876;8.346;2023-08-30T13:53:18;15.10;99.90
9699;DHT22;10089;47.876;8.346;2023-08-30T13:55:48;15.00;99.90
9699;DHT22;10089;47.876;8.346;2023-08-30T13:58:27;15.30;99.90
9699;DHT22;10089;47.876;8.346;2023-08-30T14:01:39;14.90;99.90
9699;DHT22;10089;47.876;8.346;2023-08-30T14:04:05;15.00;99.90
9699;DHT22;10089;47.876;8.346;2023-08-30T14:06:35;15.10;99.90
9699;DHT22;10089;47.876;8.346;2023-08-30T14:09:11;15.10;99.90
9699;DHT22;10089;47.876;8.346;2023-08-30T14:12:01;15.30;99.90
9699;DHT22;10089;47.876;8.346;2023-08-30T14:14:38;15.30;1.00
9699;DHT22;10089;47.876;8.346;2023-08-30T14:17:09;15.50;1.00
9699;DHT22;10089;47.876;8.346;2023-08-30T14:19:36;16.30;99.90
9699;DHT22;10089;47.876;8.346;2023-08-30T14:22:02;15.80;99.90
9699;DHT22;10089;47.876;8.346;2023-08-30T14:24:29;15.50;1.00
9699;DHT22;10089;47.876;8.346;2023-08-30T14:26:55;15.40;1.00
9699;DHT22;10089;47.876;8.346;2023-08-30T14:29:21;15.30;1.00
9699;DHT22;10089;47.876;8.346;2023-08-30T14:31:49;15.20;92.20
9699;DHT22;10089;47.876;8.346;2023-08-30T14:34:15;15.40;1.00
9699;DHT22;10089;47.876;8.346;2023-08-30T14:36:40;15.20;5.80
9699;DHT22;10089;47.876;8.346;2023-08-30T14:39:08;15.20;1.00
9699;DHT22;10089;47.876;8.346;2023-08-30T14:41:35;15.20;1.00
9699;DHT22;10089;47.876;8.346;2023-08-30T14:44:02;15.30;1.00
9699;DHT22;10089;47.876;8.346;2023-08-30T14:46:29;15.20;1.00
9699;DHT22;10089;47.876;8.346;2023-08-30T14:48:54;15.20;1.00
9699;DHT22;10089;47.876;8.346;2023-08-30T14:51:20;14.90;99.90
9699;DHT22;10089;47.876;8.346;2023-08-30T14:53:46;14.80;99.90
9699;DHT22;10089;47.876;8.346;2023-08-30T14:56:11;14.20;99.90
9699;DHT22;10089;47.876;8.346;2023-08-30T14:58:37;14.00;99.90
9699;DHT22;10089;47.876;8.346;2023-08-30T15:01:03;14.30;99.90
9699;DHT22;10089;47.876;8.346;2023-08-30T15:03:30;14.30;99.90
9699;DHT22;10089;47.876;8.346;2023-08-30T15:05:56;14.40;99.90
9699;DHT22;10089;47.876;8.346;2023-08-30T15:08:22;14.30;99.90
9699;DHT22;10089;47.876;8.346;2023-08-30T15:10:49;14.30;99.90
9699;DHT22;10089;47.876;8.346;2023-08-30T15:13:14;14.30;99.90
9699;DHT22;10089;47.876;8.346;2023-08-30T15:15:40;14.50;99.90
9699;DHT22;10089;47.876;8.346;2023-08-30T15:18:06;14.40;99.90
9699;DHT22;10089;47.876;8.346;2023-08-30T15:20:31;14.40;99.90
9699;DHT22;10089;47.876;8.346;2023-08-30T15:22:57;14.40;99.90
9699;DHT22;10089;47.876;8.346;2023-08-30T15:25:24;14.40;99.90
9699;DHT22;10089;47.876;8.346;2023-08-30T15:27:50;14.40;99.90
9699;DHT22;10089;47.876;8.346;2023-08-30T15:30:16;14.30;99.90
9699;DHT22;10089;47.876;8.346;2023-08-30T15:32:43;14.30;99.90
9699;DHT22;10089;47.876;8.346;2023-08-30T15:35:09;14.50;99.90
9699;DHT22;10089;47.876;8.346;2023-08-30T15:37:36;14.70;99.90
9699;DHT22;10089;47.876;8.346;2023-08-30T15:40:03;14.90;99.90
9699;DHT22;10089;47.876;8.346;2023-08-30T15:42:33;15.10;99.90
9699;DHT22;10089;47.876;8.346;2023-08-30T15:45:01;15.40;99.90
9699;DHT22;10089;47.876;8.346;2023-08-30T15:47:29;15.30;99.90
9699;DHT22;10089;47.876;8.346;2023-08-30T15:50:15;15.70;1.00
9699;DHT22;10089;47.876;8.346;2023-08-30T15:52:41;15.80;1.00
9699;DHT22;10089;47.876;8.346;2023-08-30T15:55:06;15.80;99.90
9699;DHT22;10089;47.876;8.346;2023-08-30T15:57:33;15.90;99.90
9699;DHT22;10089;47.876;8.346;2023-08-30T16:00:01;15.90;99.90
9699;DHT22;10089;47.876;8.346;2023-08-30T16:02:32;16.20;1.00
9699;DHT22;10089;47.876;8.346;2023-08-30T16:04:57;16.00;1.00
9699;DHT22;10089;47.876;8.346;2023-08-30T16:07:23;16.30;1.00
9699;DHT22;10089;47.876;8.346;2023-08-30T16:09:48;16.00;99.90
9699;DHT22;10089;47.876;8.346;2023-08-30T16:12:15;16.00;1.00
9699;DHT22;10089;47.876;8.346;2023-08-30T16:14:41;15.90;1.00
9699;DHT22;10089;47.876;8.346;2023-08-30T16:17:07;16.00;99.90
9699;DHT22;10089;47.876;8.346;2023-08-30T16:19:39;15.90;99.90
9699;DHT22;10089;47.876;8.346;2023-08-30T16:22:04;16.30;99.90
9699;DHT22;10089;47.876;8.346;2023-08-30T16:24:30;16.20;1.00
9699;DHT22;10089;47.876;8.346;2023-08-30T16:26:57;16.00;99.90
9699;DHT22;10089;47.876;8.346;2023-08-30T16:29:25;15.80;1.00
9699;DHT22;10089;47.876;8.346;2023-08-30T16:31:51;15.90;99.90
9699;DHT22;10089;47.876;8.346;2023-08-30T16:34:20;15.90;1.00
9699;DHT22;10089;47.876;8.346;2023-08-30T16:36:49;15.80;1.00
9699;DHT22;10089;47.876;8.346;2023-08-30T16:39:16;15.80;1.00
9699;DHT22;10089;47.876;8.346;2023-08-30T16:41:45;15.80;1.00
9699;DHT22;10089;47.876;8.346;2023-08-30T16:44:11;16.40;99.90
9699;DHT22;10089;47.876;8.346;2023-08-30T16:46:39;15.70;99.90
9699;DHT22;10089;47.876;8.346;2023-08-30T16:49:06;15.60;99.90
9699;DHT22;10089;47.876;8.346;2023-08-30T16:51:32;15.50;1.00
9699;DHT22;10089;47.876;8.346;2023-08-30T16:53:58;15.50;1.00
9699;DHT22;10089;47.876;8.346;2023-08-30T16:56:23;15.40;1.00